Syoanmaru No15 — JD3862 — position and weather

sailwx.info

Track history (hours):
 
Tides and Currents Weather Stations Pressure Air Temp Water Temp Dewpoint Dewpoint Depression Visibility Wind Speed Wind Dir Waves Ship Positions

Syoanmaru No15

Last reported at 2018-Jan-18 16:58 UTC. Time now 2018-Jan-18 17:30 UTC.
Position N 35°22' E 139°39'.

Length 60 m; draft 4 m.

Type: Tanker. MMSI: 431006926.

Date/timePositionNaut miles runAvg speedWind from/ knotsBaromVisibWave heightAir tempDewpointWater temp
2018-Jan-18 16:58N 35°22' E 139°39'0 0.0
2018-Jan-18 16:28N 35°22' E 139°39'0 0.0
2018-Jan-18 15:58N 35°22' E 139°39'0 0.0
2018-Jan-18 15:28N 35°22' E 139°39'0 0.1
2018-Jan-18 14:58N 35°22' E 139°39'0 0.0
2018-Jan-18 14:28N 35°22' E 139°39'0 0.0
2018-Jan-18 13:58N 35°22' E 139°39'0 0.1
2018-Jan-18 13:28N 35°22' E 139°39'0 0.1
2018-Jan-18 12:58N 35°22' E 139°39'0 0.0
2018-Jan-18 12:28N 35°22' E 139°39'0 0.0
2018-Jan-18 11:58N 35°22' E 139°39'0 0.0
2018-Jan-18 11:28N 35°22' E 139°39'0 0.0
2018-Jan-18 10:58N 35°22' E 139°39'0 0.0
2018-Jan-18 10:28N 35°22' E 139°39'0 0.0
2018-Jan-18 09:58N 35°22' E 139°39'0 0.0
2018-Jan-18 09:28N 35°22' E 139°39'0 0.0
2018-Jan-18 08:58N 35°22' E 139°39'0 0.0
2018-Jan-18 08:28N 35°22' E 139°39'0 0.1
2018-Jan-18 07:58N 35°22' E 139°39'0 0.0
2018-Jan-18 07:28N 35°22' E 139°39'0 0.1
2018-Jan-18 06:58N 35°22' E 139°39'0 0.0
2018-Jan-18 06:28N 35°22' E 139°39'0 0.1
2018-Jan-18 05:58N 35°22' E 139°39'0 0.0
2018-Jan-18 05:28N 35°22' E 139°39'0 0.0
2018-Jan-18 04:58N 35°22' E 139°39'0 0.1
2018-Jan-18 04:30N 35°22' E 139°39'5 9.5
2018-Jan-18 04:01N 35°19' E 139°44'611.7
2018-Jan-18 03:30N 35°13' E 139°47'612.3
2018-Jan-18 03:00N 35°07' E 139°46'611.8
2018-Jan-18 02:30N 35°01' E 139°48'2 1.5
2018-Jan-18 01:14N 35°01' E 139°50'0 0.0
2018-Jan-18 00:50N 35°01' E 139°50'  
2018-Jan-11 23:12N 35°30' E 139°43'0 1.1
2018-Jan-11 23:00N 35°30' E 139°43'3 6.9
2018-Jan-11 22:30N 35°27' E 139°43'3 6.4
2018-Jan-11 22:00N 35°24' E 139°44'0 0.0
2018-Jan-11 21:30N 35°24' E 139°44'0 0.0
2018-Jan-11 21:00N 35°24' E 139°44'0 0.0
2018-Jan-11 20:30N 35°24' E 139°44'0 0.0
2018-Jan-11 20:00N 35°24' E 139°44'0 0.0
2018-Jan-11 19:30N 35°24' E 139°44'0 0.0
2018-Jan-11 19:00N 35°24' E 139°44'0 0.1
2018-Jan-11 18:30N 35°24' E 139°44'0 0.0
2018-Jan-11 18:00N 35°24' E 139°44'0 0.1
2018-Jan-11 17:27N 35°24' E 139°44'0 0.0
2018-Jan-11 17:00N 35°24' E 139°44'0 0.0
2018-Jan-11 16:30N 35°24' E 139°44'0 0.0
2018-Jan-11 16:00N 35°24' E 139°44'0 0.0
2018-Jan-11 15:30N 35°24' E 139°44'0 0.0
2018-Jan-11 15:00N 35°24' E 139°44'0 0.0
2018-Jan-11 14:30N 35°24' E 139°44'0 0.0
2018-Jan-11 13:57N 35°24' E 139°44'0 0.0
2018-Jan-11 13:30N 35°24' E 139°44'0 0.0
2018-Jan-11 12:57N 35°24' E 139°44'0 0.0
2018-Jan-11 12:30N 35°24' E 139°44'0 0.0
2018-Jan-11 12:00N 35°24' E 139°44'0 0.0
2018-Jan-11 11:30N 35°24' E 139°44'0 0.0
2018-Jan-11 11:00N 35°24' E 139°44'0 0.0
2018-Jan-11 10:30N 35°24' E 139°44'0 0.0
2018-Jan-11 10:00N 35°24' E 139°44'0 0.0
2018-Jan-11 09:30N 35°24' E 139°44'0 0.0
2018-Jan-11 09:00N 35°24' E 139°44'0 0.0
2018-Jan-11 08:30N 35°24' E 139°44'0 0.1
2018-Jan-11 08:00N 35°24' E 139°44'0 0.1
2018-Jan-11 07:30N 35°24' E 139°44'0 0.1
2018-Jan-11 07:00N 35°24' E 139°44'0 0.0
2018-Jan-11 06:30N 35°24' E 139°44'0 0.0
2018-Jan-11 06:00N 35°24' E 139°44'0 0.0
2018-Jan-11 05:30N 35°24' E 139°44'0 0.0
2018-Jan-11 05:00N 35°24' E 139°44'0 0.1
2018-Jan-11 04:30N 35°24' E 139°44'0 0.0
2018-Jan-11 04:00N 35°24' E 139°44'0 0.0
2018-Jan-11 03:30N 35°24' E 139°44'0 0.0
2018-Jan-11 03:00N 35°24' E 139°44'0 0.0
2018-Jan-11 02:30N 35°24' E 139°44'0 0.0
2018-Jan-11 02:00N 35°24' E 139°44'0 0.0
2018-Jan-11 01:30N 35°24' E 139°44'0 0.1
2018-Jan-11 01:00N 35°24' E 139°44'5 9.2
2018-Jan-11 00:30N 35°24' E 139°38'0 0.1
2018-Jan-10 23:59N 35°24' E 139°38'0 0.0
2018-Jan-10 23:29N 35°24' E 139°38'0 0.0
2018-Jan-10 23:00N 35°24' E 139°38'3 5.2
2018-Jan-10 22:31N 35°23' E 139°41'510.6
2018-Jan-10 22:00N 35°27' E 139°46'510.9
2018-Jan-10 21:30N 35°31' E 139°51'0 0.0
2018-Jan-10 17:36N 35°31' E 139°51'0 0.0
2018-Jan-10 17:27N 35°31' E 139°51'0 0.1
2018-Jan-10 17:00N 35°31' E 139°51'0 0.0
2018-Jan-10 14:54N 35°31' E 139°51'0 0.0
2018-Jan-10 14:12N 35°31' E 139°51'0 0.0
2018-Jan-10 13:57N 35°31' E 139°51'0 0.0
2018-Jan-10 13:27N 35°31' E 139°51'0 0.0
2018-Jan-10 11:39N 35°31' E 139°51'0 0.0
2018-Jan-10 11:24N 35°31' E 139°51'0 0.0
2018-Jan-10 10:12N 35°31' E 139°51'0 0.0
2018-Jan-10 06:24N 35°31' E 139°51'0 0.0
2018-Jan-10 05:51N 35°31' E 139°51'0 0.0
2018-Jan-10 04:36N 35°31' E 139°51'0 0.0
2018-Jan-10 03:00N 35°31' E 139°51'3 6.0
2018-Jan-10 02:30N 35°30' E 139°54'510.4
2018-Jan-10 02:00N 35°28' E 140°00'0 0.1
2018-Jan-09 23:53N 35°28' E 140°00'2 5.0
2018-Jan-09 23:30N 35°29' E 139°58'5 9.3
2018-Jan-09 23:00N 35°31' E 139°53'2 1.3
2018-Jan-09 21:30N 35°31' E 139°51'0 0.0
2018-Jan-09 14:45N 35°31' E 139°51'0 0.0
2018-Jan-09 13:30N 35°31' E 139°51'1 1.2
2018-Jan-09 13:00N 35°31' E 139°50'612.1
2018-Jan-09 12:30N 35°25' E 139°47'612.4
2018-Jan-09 12:01N 35°19' E 139°44'611.2
2018-Jan-09 11:30N 35°14' E 139°47'611.2
2018-Jan-09 11:01N 35°09' E 139°46'611.5
2018-Jan-09 10:30N 35°04' E 139°43'611.9
2018-Jan-09 10:00N 34°60' E 139°37'1413.9
2018-Jan-09 09:00N 34°52' E 139°23'814.9
2018-Jan-09 08:28N 34°47' E 139°16'913.5
2018-Jan-09 07:49N 34°42' E 139°08'412.5
2018-Jan-09 07:30N 34°39' E 139°04'713.1
2018-Jan-09 07:00N 34°36' E 138°57'713.2
2018-Jan-09 06:30N 34°35' E 138°49'612.3
2018-Jan-09 05:59N 34°39' E 138°43'4 8.9
2018-Jan-09 05:30N 34°43' E 138°42'5 9.0
2018-Jan-09 04:57N 34°48' E 138°42'4 8.5
2018-Jan-09 04:30N 34°52' E 138°42'4 7.9
2018-Jan-09 04:00N 34°56' E 138°43'4 8.8
2018-Jan-09 03:30N 35°00' E 138°43'5 9.3
2018-Jan-09 03:00N 35°05' E 138°42'4 7.1
2018-Jan-09 02:30N 35°08' E 138°41'0 0.0
2018-Jan-09 01:53N 35°08' E 138°41'0 0.0
2018-Jan-09 01:29N 35°08' E 138°41'0 0.0
2018-Jan-09 00:59N 35°08' E 138°41'0 0.0
2018-Jan-09 00:23N 35°08' E 138°41'0 0.0
2018-Jan-09 00:00N 35°08' E 138°41'0 0.0
2018-Jan-08 23:30N 35°08' E 138°41'0 0.8
2018-Jan-08 23:00N 35°08' E 138°42'5 9.1
2018-Jan-08 22:30N 35°05' E 138°38'5 9.9
2018-Jan-08 22:00N 35°03' E 138°32'0 0.0
2018-Jan-08 21:28N 35°03' E 138°32'0 0.0
2018-Jan-08 20:58N 35°03' E 138°32'0 0.0
2018-Jan-08 20:28N 35°03' E 138°32'0 0.0
2018-Jan-08 19:58N 35°03' E 138°32'0 0.0
2018-Jan-08 19:28N 35°03' E 138°32'0 0.0
2018-Jan-08 18:58N 35°03' E 138°32'0 0.1
2018-Jan-08 18:25N 35°03' E 138°32'0 0.0
2018-Jan-08 17:58N 35°03' E 138°32'0 0.0
2018-Jan-08 17:28N 35°03' E 138°32'0 0.0
2018-Jan-08 16:58N 35°03' E 138°32'  
Track history (hours):
 
Tides and Currents Weather Stations Pressure Air Temp Water Temp Dewpoint Dewpoint Depression Visibility Wind Speed Wind Dir Waves Ship Positions

Syoanmaru No15

Last reported at 2018-Jan-18 16:58 UTC. Time now 2018-Jan-18 17:30 UTC.
Position N 35°22' E 139°39'.

Length 60 m; draft 4 m.

Type: Tanker. MMSI: 431006926.

Date/timePositionNaut miles runAvg speedWind from/ knotsBaromVisibWave heightAir tempDewpointWater temp
2018-Jan-18 16:58N 35°22' E 139°39'0 0.0
2018-Jan-18 16:28N 35°22' E 139°39'0 0.0
2018-Jan-18 15:58N 35°22' E 139°39'0 0.0
2018-Jan-18 15:28N 35°22' E 139°39'0 0.1
2018-Jan-18 14:58N 35°22' E 139°39'0 0.0
2018-Jan-18 14:28N 35°22' E 139°39'0 0.0
2018-Jan-18 13:58N 35°22' E 139°39'0 0.1
2018-Jan-18 13:28N 35°22' E 139°39'0 0.1
2018-Jan-18 12:58N 35°22' E 139°39'0 0.0
2018-Jan-18 12:28N 35°22' E 139°39'0 0.0
2018-Jan-18 11:58N 35°22' E 139°39'0 0.0
2018-Jan-18 11:28N 35°22' E 139°39'0 0.0
2018-Jan-18 10:58N 35°22' E 139°39'0 0.0
2018-Jan-18 10:28N 35°22' E 139°39'0 0.0
2018-Jan-18 09:58N 35°22' E 139°39'0 0.0
2018-Jan-18 09:28N 35°22' E 139°39'0 0.0
2018-Jan-18 08:58N 35°22' E 139°39'0 0.0
2018-Jan-18 08:28N 35°22' E 139°39'0 0.1
2018-Jan-18 07:58N 35°22' E 139°39'0 0.0
2018-Jan-18 07:28N 35°22' E 139°39'0 0.1
2018-Jan-18 06:58N 35°22' E 139°39'0 0.0
2018-Jan-18 06:28N 35°22' E 139°39'0 0.1
2018-Jan-18 05:58N 35°22' E 139°39'0 0.0
2018-Jan-18 05:28N 35°22' E 139°39'0 0.0
2018-Jan-18 04:58N 35°22' E 139°39'0 0.1
2018-Jan-18 04:30N 35°22' E 139°39'5 9.5
2018-Jan-18 04:01N 35°19' E 139°44'611.7
2018-Jan-18 03:30N 35°13' E 139°47'612.3
2018-Jan-18 03:00N 35°07' E 139°46'611.8
2018-Jan-18 02:30N 35°01' E 139°48'2 1.5
2018-Jan-18 01:14N 35°01' E 139°50'0 0.0
2018-Jan-18 00:50N 35°01' E 139°50'  
2018-Jan-11 23:12N 35°30' E 139°43'0 1.1
2018-Jan-11 23:00N 35°30' E 139°43'3 6.9
2018-Jan-11 22:30N 35°27' E 139°43'3 6.4
2018-Jan-11 22:00N 35°24' E 139°44'0 0.0
2018-Jan-11 21:30N 35°24' E 139°44'0 0.0
2018-Jan-11 21:00N 35°24' E 139°44'0 0.0
2018-Jan-11 20:30N 35°24' E 139°44'0 0.0
2018-Jan-11 20:00N 35°24' E 139°44'0 0.0
2018-Jan-11 19:30N 35°24' E 139°44'0 0.0
2018-Jan-11 19:00N 35°24' E 139°44'0 0.1
2018-Jan-11 18:30N 35°24' E 139°44'0 0.0
2018-Jan-11 18:00N 35°24' E 139°44'0 0.1
2018-Jan-11 17:27N 35°24' E 139°44'0 0.0
2018-Jan-11 17:00N 35°24' E 139°44'0 0.0
2018-Jan-11 16:30N 35°24' E 139°44'0 0.0
2018-Jan-11 16:00N 35°24' E 139°44'0 0.0
2018-Jan-11 15:30N 35°24' E 139°44'0 0.0
2018-Jan-11 15:00N 35°24' E 139°44'0 0.0
2018-Jan-11 14:30N 35°24' E 139°44'0 0.0
2018-Jan-11 13:57N 35°24' E 139°44'0 0.0
2018-Jan-11 13:30N 35°24' E 139°44'0 0.0
2018-Jan-11 12:57N 35°24' E 139°44'0 0.0
2018-Jan-11 12:30N 35°24' E 139°44'0 0.0
2018-Jan-11 12:00N 35°24' E 139°44'0 0.0
2018-Jan-11 11:30N 35°24' E 139°44'0 0.0
2018-Jan-11 11:00N 35°24' E 139°44'0 0.0
2018-Jan-11 10:30N 35°24' E 139°44'0 0.0
2018-Jan-11 10:00N 35°24' E 139°44'0 0.0
2018-Jan-11 09:30N 35°24' E 139°44'0 0.0
2018-Jan-11 09:00N 35°24' E 139°44'0 0.0
2018-Jan-11 08:30N 35°24' E 139°44'0 0.1
2018-Jan-11 08:00N 35°24' E 139°44'0 0.1
2018-Jan-11 07:30N 35°24' E 139°44'0 0.1
2018-Jan-11 07:00N 35°24' E 139°44'0 0.0
2018-Jan-11 06:30N 35°24' E 139°44'0 0.0
2018-Jan-11 06:00N 35°24' E 139°44'0 0.0
2018-Jan-11 05:30N 35°24' E 139°44'0 0.0
2018-Jan-11 05:00N 35°24' E 139°44'0 0.1
2018-Jan-11 04:30N 35°24' E 139°44'0 0.0
2018-Jan-11 04:00N 35°24' E 139°44'0 0.0
2018-Jan-11 03:30N 35°24' E 139°44'0 0.0
2018-Jan-11 03:00N 35°24' E 139°44'0 0.0
2018-Jan-11 02:30N 35°24' E 139°44'0 0.0
2018-Jan-11 02:00N 35°24' E 139°44'0 0.0
2018-Jan-11 01:30N 35°24' E 139°44'0 0.1
2018-Jan-11 01:00N 35°24' E 139°44'5 9.2
2018-Jan-11 00:30N 35°24' E 139°38'0 0.1
2018-Jan-10 23:59N 35°24' E 139°38'0 0.0
2018-Jan-10 23:29N 35°24' E 139°38'0 0.0
2018-Jan-10 23:00N 35°24' E 139°38'3 5.2
2018-Jan-10 22:31N 35°23' E 139°41'510.6
2018-Jan-10 22:00N 35°27' E 139°46'510.9
2018-Jan-10 21:30N 35°31' E 139°51'0 0.0
2018-Jan-10 17:36N 35°31' E 139°51'0 0.0
2018-Jan-10 17:27N 35°31' E 139°51'0 0.1
2018-Jan-10 17:00N 35°31' E 139°51'0 0.0
2018-Jan-10 14:54N 35°31' E 139°51'0 0.0
2018-Jan-10 14:12N 35°31' E 139°51'0 0.0
2018-Jan-10 13:57N 35°31' E 139°51'0 0.0
2018-Jan-10 13:27N 35°31' E 139°51'0 0.0
2018-Jan-10 11:39N 35°31' E 139°51'0 0.0
2018-Jan-10 11:24N 35°31' E 139°51'0 0.0
2018-Jan-10 10:12N 35°31' E 139°51'0 0.0
2018-Jan-10 06:24N 35°31' E 139°51'0 0.0
2018-Jan-10 05:51N 35°31' E 139°51'0 0.0
2018-Jan-10 04:36N 35°31' E 139°51'0 0.0
2018-Jan-10 03:00N 35°31' E 139°51'3 6.0
2018-Jan-10 02:30N 35°30' E 139°54'510.4
2018-Jan-10 02:00N 35°28' E 140°00'0 0.1
2018-Jan-09 23:53N 35°28' E 140°00'2 5.0
2018-Jan-09 23:30N 35°29' E 139°58'5 9.3
2018-Jan-09 23:00N 35°31' E 139°53'2 1.3
2018-Jan-09 21:30N 35°31' E 139°51'0 0.0
2018-Jan-09 14:45N 35°31' E 139°51'0 0.0
2018-Jan-09 13:30N 35°31' E 139°51'1 1.2
2018-Jan-09 13:00N 35°31' E 139°50'612.1
2018-Jan-09 12:30N 35°25' E 139°47'612.4
2018-Jan-09 12:01N 35°19' E 139°44'611.2
2018-Jan-09 11:30N 35°14' E 139°47'611.2
2018-Jan-09 11:01N 35°09' E 139°46'611.5
2018-Jan-09 10:30N 35°04' E 139°43'611.9
2018-Jan-09 10:00N 34°60' E 139°37'1413.9
2018-Jan-09 09:00N 34°52' E 139°23'814.9
2018-Jan-09 08:28N 34°47' E 139°16'913.5
2018-Jan-09 07:49N 34°42' E 139°08'412.5
2018-Jan-09 07:30N 34°39' E 139°04'713.1
2018-Jan-09 07:00N 34°36' E 138°57'713.2
2018-Jan-09 06:30N 34°35' E 138°49'612.3
2018-Jan-09 05:59N 34°39' E 138°43'4 8.9
2018-Jan-09 05:30N 34°43' E 138°42'5 9.0
2018-Jan-09 04:57N 34°48' E 138°42'4 8.5
2018-Jan-09 04:30N 34°52' E 138°42'4 7.9
2018-Jan-09 04:00N 34°56' E 138°43'4 8.8
2018-Jan-09 03:30N 35°00' E 138°43'5 9.3
2018-Jan-09 03:00N 35°05' E 138°42'4 7.1
2018-Jan-09 02:30N 35°08' E 138°41'0 0.0
2018-Jan-09 01:53N 35°08' E 138°41'0 0.0
2018-Jan-09 01:29N 35°08' E 138°41'0 0.0
2018-Jan-09 00:59N 35°08' E 138°41'0 0.0
2018-Jan-09 00:23N 35°08' E 138°41'0 0.0
2018-Jan-09 00:00N 35°08' E 138°41'0 0.0
2018-Jan-08 23:30N 35°08' E 138°41'0 0.8
2018-Jan-08 23:00N 35°08' E 138°42'5 9.1
2018-Jan-08 22:30N 35°05' E 138°38'5 9.9
2018-Jan-08 22:00N 35°03' E 138°32'0 0.0
2018-Jan-08 21:28N 35°03' E 138°32'0 0.0
2018-Jan-08 20:58N 35°03' E 138°32'0 0.0
2018-Jan-08 20:28N 35°03' E 138°32'0 0.0
2018-Jan-08 19:58N 35°03' E 138°32'0 0.0
2018-Jan-08 19:28N 35°03' E 138°32'0 0.0
2018-Jan-08 18:58N 35°03' E 138°32'0 0.1
2018-Jan-08 18:25N 35°03' E 138°32'0 0.0
2018-Jan-08 17:58N 35°03' E 138°32'0 0.0
2018-Jan-08 17:28N 35°03' E 138°32'0 0.0
2018-Jan-08 16:58N 35°03' E 138°32'  

Dump ship's entire track history